Time;durP1;ratioP1;P1;durP2;ratioP2;P2;SDS_P1;SDS_P2;PMS_P1;PMS_P2;Temp;Humidity;BMP_temperature;BMP_pressure;BME280_temperature;BME280_humidity;BME280_pressure;Samples;Min_cycle;Max_cycle;Signal;HPM_P1;HPM_P2
2023/09/27 00:01:40;;;;;;;11.83;10.73;;;15.50;99.90;;;;;;5013959;28;20495;-93
2023/09/27 00:04:09;;;;;;;12.00;11.10;;;15.50;99.90;;;;;;5014808;28;20469;-93
2023/09/27 00:06:38;;;;;;;12.40;11.50;;;15.50;99.90;;;;;;5010750;28;20465;-93
2023/09/27 00:09:07;;;;;;;12.70;11.80;;;15.40;99.90;;;;;;5008248;28;20535;-93
2023/09/27 00:11:37;;;;;;;14.13;12.80;;;15.40;99.90;;;;;;5007859;28;20434;-94
2023/09/27 00:14:05;;;;;;;13.40;11.80;;;15.50;99.90;;;;;;5010991;28;20499;-93
2023/09/27 00:16:35;;;;;;;10.50;9.50;;;15.50;99.90;;;;;;5011314;28;20423;-94
2023/09/27 00:19:05;;;;;;;10.30;9.30;;;15.40;99.90;;;;;;5012675;28;20423;-93
2023/09/27 00:21:33;;;;;;;9.77;8.97;;;15.30;99.90;;;;;;5029372;28;20460;-93
2023/09/27 00:24:02;;;;;;;10.20;9.30;;;15.40;99.90;;;;;;5011331;28;20962;-94
2023/09/27 00:26:30;;;;;;;9.13;8.33;;;15.30;99.90;;;;;;5009318;28;20495;-93
2023/09/27 00:29:00;;;;;;;9.33;8.63;;;15.30;99.90;;;;;;5009221;28;20459;-93
2023/09/27 00:31:29;;;;;;;9.50;8.70;;;15.20;99.90;;;;;;5011432;28;20440;-94
2023/09/27 00:33:58;;;;;;;9.13;8.37;;;15.20;99.90;;;;;;5008415;28;20443;-93
2023/09/27 00:36:26;;;;;;;9.23;8.53;;;15.20;99.90;;;;;;5026284;28;20472;-94
2023/09/27 00:38:54;;;;;;;8.77;8.07;;;15.20;99.90;;;;;;5007036;28;20484;-93
2023/09/27 00:41:23;;;;;;;9.23;8.47;;;15.10;99.90;;;;;;5008332;28;20467;-94
2023/09/27 00:43:52;;;;;;;10.70;9.80;;;15.20;99.90;;;;;;5009023;28;20515;-94
2023/09/27 00:46:23;;;;;;;9.27;8.47;;;15.20;99.90;;;;;;5010880;28;20971;-93
2023/09/27 00:48:52;;;;;;;9.00;8.20;;;15.00;99.90;;;;;;5012131;28;20445;-93
2023/09/27 00:51:21;;;;;;;9.50;8.80;;;15.10;99.90;;;;;;5010624;28;20452;-94
2023/09/27 00:53:50;;;;;;;9.00;8.40;;;15.00;99.90;;;;;;5011765;28;20526;-94
2023/09/27 00:56:19;;;;;;;8.47;7.77;;;15.00;99.90;;;;;;5011434;28;20456;-92
2023/09/27 00:58:48;;;;;;;8.00;7.30;;;14.90;99.90;;;;;;5008222;28;20459;-92
2023/09/27 01:01:17;;;;;;;9.17;8.47;;;15.00;99.90;;;;;;5010012;28;20523;-91
2023/09/27 01:03:48;;;;;;;9.10;8.40;;;15.10;99.90;;;;;;5008218;28;20472;-92
2023/09/27 01:06:17;;;;;;;8.77;7.90;;;14.90;99.90;;;;;;5008677;28;20483;-92
2023/09/27 01:08:45;;;;;;;9.13;8.33;;;14.90;99.90;;;;;;5009311;28;20487;-94
2023/09/27 01:11:14;;;;;;;9.57;8.77;;;14.90;99.90;;;;;;5010796;28;20463;-93
2023/09/27 01:13:42;;;;;;;8.37;7.53;;;14.80;99.90;;;;;;5008338;28;20443;-92
2023/09/27 01:16:11;;;;;;;9.30;8.50;;;14.80;99.90;;;;;;5009896;28;20472;-92
2023/09/27 01:18:40;;;;;;;9.03;8.30;;;14.70;99.90;;;;;;5010083;28;20452;-91
2023/09/27 01:21:10;;;;;;;8.93;8.33;;;14.70;99.90;;;;;;5008875;28;20452;-92
2023/09/27 01:23:41;;;;;;;8.33;7.73;;;14.80;99.90;;;;;;5025082;28;21014;-91
2023/09/27 01:26:12;;;;;;;9.97;9.00;;;14.70;99.90;;;;;;5027505;28;20465;-91
2023/09/27 01:28:42;;;;;;;9.67;8.77;;;14.70;99.90;;;;;;5008854;28;20449;-91
2023/09/27 01:31:10;;;;;;;8.77;8.17;;;14.80;99.90;;;;;;5008617;28;20452;-92
2023/09/27 01:33:39;;;;;;;8.90;8.10;;;14.70;99.90;;;;;;5007169;28;20580;-92
2023/09/27 01:36:07;;;;;;;9.57;8.73;;;14.60;99.90;;;;;;5007558;28;20420;-92
2023/09/27 01:38:37;;;;;;;9.07;8.27;;;14.60;99.90;;;;;;5012079;28;20453;-92
2023/09/27 01:41:06;;;;;;;10.10;9.20;;;14.60;99.90;;;;;;5024649;28;20473;-92
2023/09/27 01:43:35;;;;;;;9.67;8.97;;;14.60;99.90;;;;;;5007123;28;20476;-92
2023/09/27 01:46:04;;;;;;;10.03;9.23;;;14.60;99.90;;;;;;5005743;28;20497;-92
2023/09/27 01:48:33;;;;;;;9.93;9.13;;;14.50;99.90;;;;;;5006422;28;20544;-92
2023/09/27 01:51:01;;;;;;;10.07;9.30;;;14.60;99.90;;;;;;5006929;28;20457;-92
2023/09/27 01:53:29;;;;;;;10.20;9.40;;;14.50;99.90;;;;;;5006034;28;20499;-91
2023/09/27 01:55:58;;;;;;;10.30;9.50;;;14.50;99.90;;;;;;5007616;28;20456;-92
2023/09/27 01:58:28;;;;;;;9.90;9.13;;;14.50;99.90;;;;;;5007555;28;20483;-92
2023/09/27 02:00:56;;;;;;;11.67;10.70;;;14.40;99.90;;;;;;5007103;28;20459;-91
2023/09/27 02:03:24;;;;;;;11.63;10.63;;;14.40;99.90;;;;;;5006329;28;20474;-92
2023/09/27 02:05:53;;;;;;;12.10;11.10;;;14.50;99.90;;;;;;5006787;28;20456;-92
2023/09/27 02:08:21;;;;;;;12.40;11.40;;;14.40;99.90;;;;;;5023982;28;20449;-92
2023/09/27 02:10:51;;;;;;;11.30;10.40;;;14.40;99.90;;;;;;5005533;28;20488;-91
2023/09/27 02:13:19;;;;;;;12.57;11.57;;;14.50;99.90;;;;;;5003156;28;20479;-92
2023/09/27 02:15:49;;;;;;;13.47;12.47;;;14.40;99.90;;;;;;5004676;28;20460;-92
2023/09/27 02:18:18;;;;;;;12.60;11.60;;;14.50;99.90;;;;;;5004343;28;20447;-92
2023/09/27 02:20:46;;;;;;;13.60;12.40;;;14.40;99.90;;;;;;5008042;28;20558;-92
2023/09/27 02:23:15;;;;;;;13.03;11.93;;;14.30;99.90;;;;;;5013111;28;20469;-92
2023/09/27 02:25:43;;;;;;;13.00;11.80;;;14.30;99.90;;;;;;5005661;28;20469;-92
2023/09/27 02:28:11;;;;;;;12.00;11.03;;;14.30;99.90;;;;;;5005187;28;20473;-92
2023/09/27 02:30:40;;;;;;;13.57;12.33;;;14.30;99.90;;;;;;5004626;28;20449;-92
2023/09/27 02:33:10;;;;;;;12.33;11.30;;;14.30;99.90;;;;;;5004215;28;20473;-92
2023/09/27 02:35:39;;;;;;;12.30;11.30;;;14.40;99.90;;;;;;5005446;28;20453;-91
2023/09/27 02:38:08;;;;;;;12.60;11.60;;;14.20;99.90;;;;;;5007621;28;20452;-92
2023/09/27 02:40:36;;;;;;;13.50;12.40;;;14.20;99.90;;;;;;5005240;28;20536;-92
2023/09/27 02:43:05;;;;;;;13.10;12.10;;;14.30;99.90;;;;;;5004320;28;20503;-91
2023/09/27 02:45:34;;;;;;;13.73;12.57;;;14.20;99.90;;;;;;5004684;28;20459;-91
2023/09/27 02:48:03;;;;;;;14.00;12.80;;;14.20;99.90;;;;;;5016039;28;20456;-92
2023/09/27 02:50:33;;;;;;;13.43;12.33;;;14.20;99.90;;;;;;5019222;28;20433;-93
2023/09/27 02:53:02;;;;;;;13.67;12.47;;;14.20;99.90;;;;;;5019212;28;20449;-92
2023/09/27 02:55:30;;;;;;;14.07;12.97;;;14.20;99.90;;;;;;5019154;28;20453;-91
2023/09/27 02:57:58;;;;;;;14.27;12.50;;;14.20;99.90;;;;;;5019259;28;20469;-93
2023/09/27 03:00:27;;;;;;;14.40;13.27;;;14.10;99.90;;;;;;5019225;28;20441;-90
2023/09/27 03:02:56;;;;;;;14.80;13.70;;;14.10;99.90;;;;;;5019027;28;20929;-93
2023/09/27 03:05:25;;;;;;;14.57;13.20;;;14.10;99.90;;;;;;5019146;28;20429;-92
2023/09/27 03:07:57;;;;;;;13.93;12.83;;;14.20;99.90;;;;;;5018977;28;20481;-92
2023/09/27 03:10:25;;;;;;;13.40;12.20;;;14.10;99.90;;;;;;5019038;28;20452;-93
2023/09/27 03:12:58;;;;;;;14.93;13.67;;;14.10;99.90;;;;;;5018997;28;20516;-94
2023/09/27 03:15:26;;;;;;;14.67;13.50;;;14.10;99.90;;;;;;5016399;28;20459;-92
2023/09/27 03:17:54;;;;;;;15.80;14.40;;;14.10;99.90;;;;;;5005415;28;20453;-92
2023/09/27 03:20:24;;;;;;;19.83;18.13;;;14.00;99.90;;;;;;5005472;28;20878;-92
2023/09/27 03:22:54;;;;;;;28.17;25.50;;;14.00;99.90;;;;;;5003521;28;20532;-92
2023/09/27 03:25:22;;;;;;;20.80;18.80;;;14.00;99.90;;;;;;5006283;28;20460;-92
2023/09/27 03:27:51;;;;;;;22.40;20.30;;;14.10;99.90;;;;;;5008362;28;20476;-91
2023/09/27 03:30:19;;;;;;;28.53;25.50;;;13.90;99.90;;;;;;5007220;28;20453;-92
2023/09/27 03:32:47;;;;;;;30.57;27.53;;;14.00;99.90;;;;;;5003659;28;20544;-92
2023/09/27 03:35:16;;;;;;;24.47;22.07;;;14.00;99.90;;;;;;5003246;28;20448;-92
2023/09/27 03:37:46;;;;;;;20.70;18.80;;;14.00;99.90;;;;;;5002561;28;20830;-92
2023/09/27 03:40:16;;;;;;;19.63;17.97;;;14.00;99.90;;;;;;5002965;28;20524;-92
2023/09/27 03:42:46;;;;;;;19.20;17.43;;;13.90;99.90;;;;;;5002947;28;20483;-91
2023/09/27 03:45:15;;;;;;;18.67;16.97;;;13.90;99.90;;;;;;5002420;28;20503;-92
2023/09/27 03:47:48;;;;;;;17.13;15.63;;;13.90;99.90;;;;;;5003225;28;20471;-92
2023/09/27 03:50:23;;;;;;;15.90;14.60;;;13.90;99.90;;;;;;5007041;28;20534;-92
2023/09/27 03:52:56;;;;;;;15.00;13.80;;;13.90;99.90;;;;;;5008349;28;20475;-92
2023/09/27 03:55:27;;;;;;;15.73;14.43;;;13.90;99.90;;;;;;5006675;28;20446;-92
2023/09/27 03:57:55;;;;;;;14.97;13.77;;;13.90;99.90;;;;;;5006553;28;20819;-92
2023/09/27 04:00:24;;;;;;;16.13;14.87;;;13.90;99.90;;;;;;5007327;28;20445;-92
2023/09/27 04:02:54;;;;;;;15.67;14.37;;;13.90;99.90;;;;;;5005776;28;20511;-92
2023/09/27 04:05:25;;;;;;;16.47;15.07;;;13.80;99.90;;;;;;5009500;28;20452;-92
2023/09/27 04:07:54;;;;;;;15.77;14.47;;;13.90;99.90;;;;;;5006965;28;20496;-92
2023/09/27 04:10:24;;;;;;;16.20;14.80;;;13.80;99.90;;;;;;5006715;28;20519;-92
2023/09/27 04:12:54;;;;;;;20.20;18.33;;;13.90;99.90;;;;;;5008074;28;20472;-92
2023/09/27 04:15:23;;;;;;;20.80;18.97;;;13.70;99.90;;;;;;5009099;28;20443;-92
2023/09/27 04:17:51;;;;;;;18.03;16.43;;;13.60;99.90;;;;;;5009964;28;20476;-92
2023/09/27 04:20:19;;;;;;;17.73;16.20;;;13.70;99.90;;;;;;5011222;28;20452;-91
2023/09/27 04:22:50;;;;;;;18.83;17.13;;;13.80;99.90;;;;;;5010807;28;20499;-92
2023/09/27 04:25:19;;;;;;;17.93;16.33;;;13.70;99.90;;;;;;5009011;28;20457;-91
2023/09/27 04:27:49;;;;;;;17.70;16.10;;;13.70;99.90;;;;;;5007477;28;20469;-91
2023/09/27 04:30:22;;;;;;;16.67;15.07;;;13.80;99.90;;;;;;5009707;28;20483;-92
2023/09/27 04:32:53;;;;;;;16.77;15.40;;;13.60;99.90;;;;;;5012342;28;20480;-92
2023/09/27 04:35:25;;;;;;;16.80;15.50;;;13.70;99.90;;;;;;5012524;28;20456;-91
2023/09/27 04:37:54;;;;;;;15.97;14.60;;;13.80;99.90;;;;;;5013421;28;20503;-91
2023/09/27 04:40:22;;;;;;;16.40;15.10;;;13.60;99.90;;;;;;5018286;28;20521;-92
2023/09/27 04:42:54;;;;;;;19.07;17.47;;;13.80;99.90;;;;;;5009657;28;20476;-92
2023/09/27 04:45:24;;;;;;;21.00;19.07;;;13.60;99.90;;;;;;5007855;28;20440;-92
2023/09/27 04:47:53;;;;;;;19.60;17.90;;;13.60;99.90;;;;;;5007745;28;20469;-91
2023/09/27 04:50:21;;;;;;;20.17;18.50;;;13.70;99.90;;;;;;5003785;28;20456;-89
2023/09/27 04:52:50;;;;;;;19.30;17.23;;;13.60;99.90;;;;;;5006255;28;20477;-91
2023/09/27 04:55:19;;;;;;;19.13;17.47;;;13.60;99.90;;;;;;5005654;28;20532;-91
2023/09/27 04:57:50;;;;;;;19.10;17.50;;;13.60;99.90;;;;;;5001627;28;20551;-91
2023/09/27 05:00:19;;;;;;;20.27;18.67;;;13.60;99.90;;;;;;5000324;28;20451;-92
2023/09/27 05:02:52;;;;;;;23.07;20.97;;;13.60;99.90;;;;;;5016111;28;20483;-94
2023/09/27 05:05:23;;;;;;;23.13;21.13;;;13.60;99.90;;;;;;4999133;28;21037;-92
2023/09/27 05:07:52;;;;;;;22.80;21.00;;;13.70;99.90;;;;;;4999532;28;21019;-91
2023/09/27 05:10:20;;;;;;;20.77;18.97;;;13.50;99.90;;;;;;5000478;28;20460;-92
2023/09/27 05:12:49;;;;;;;21.57;19.87;;;13.60;99.90;;;;;;4999337;28;20527;-91
2023/09/27 05:15:18;;;;;;;20.57;18.83;;;13.60;99.90;;;;;;5000254;28;20452;-91
2023/09/27 05:17:47;;;;;;;19.60;18.03;;;13.50;99.90;;;;;;4999505;28;20445;-91
2023/09/27 05:20:17;;;;;;;18.83;17.30;;;13.60;99.90;;;;;;4998785;28;20456;-92
2023/09/27 05:22:46;;;;;;;19.40;17.80;;;13.50;99.90;;;;;;5002533;28;20576;-92
2023/09/27 05:25:14;;;;;;;19.67;18.13;;;13.50;99.90;;;;;;5003822;28;20487;-91
2023/09/27 05:27:43;;;;;;;20.73;18.83;;;13.50;99.90;;;;;;5008520;28;20456;-91
2023/09/27 05:30:12;;;;;;;19.37;17.77;;;13.70;99.90;;;;;;5015034;28;20451;-91
2023/09/27 05:32:42;;;;;;;20.17;18.57;;;13.50;99.90;;;;;;5012419;28;20509;-91
2023/09/27 05:35:11;;;;;;;19.83;18.23;;;13.50;99.90;;;;;;5016738;28;20441;-91
2023/09/27 05:37:41;;;;;;;20.47;18.70;;;13.50;99.90;;;;;;5018215;28;20453;-90
2023/09/27 05:40:11;;;;;;;19.03;17.53;;;13.50;99.90;;;;;;5018885;28;20425;-90
2023/09/27 05:42:39;;;;;;;20.30;18.20;;;13.50;99.90;;;;;;5011589;28;20469;-91
2023/09/27 05:45:11;;;;;;;19.67;18.07;;;13.50;99.90;;;;;;5002490;28;20484;-91
2023/09/27 05:47:42;;;;;;;20.50;18.73;;;13.50;99.90;;;;;;5004858;28;20445;-92
2023/09/27 05:50:12;;;;;;;20.03;18.23;;;13.50;99.90;;;;;;5004996;28;20445;-92
2023/09/27 05:52:44;;;;;;;21.13;19.40;;;13.60;99.90;;;;;;5020268;28;20535;-91
2023/09/27 05:55:15;;;;;;;20.57;18.50;;;13.50;99.90;;;;;;5005473;28;20445;-91
2023/09/27 05:57:44;;;;;;;20.07;18.47;;;13.50;99.90;;;;;;5003789;28;20449;-91
2023/09/27 06:00:21;;;;;;;20.57;18.80;;;13.50;99.90;;;;;;5005172;28;20452;-91
2023/09/27 06:02:50;;;;;;;20.57;18.77;;;13.50;99.90;;;;;;5004170;28;20567;-91
2023/09/27 06:05:20;;;;;;;21.27;19.47;;;13.50;99.90;;;;;;5004601;28;20477;-91
2023/09/27 06:07:52;;;;;;;20.20;18.50;;;13.60;99.90;;;;;;5005313;28;20480;-92
2023/09/27 06:10:21;;;;;;;21.63;19.67;;;13.60;99.90;;;;;;5005585;28;20459;-91
2023/09/27 06:12:49;;;;;;;21.00;19.10;;;13.60;99.90;;;;;;5004971;28;20479;-91
2023/09/27 06:15:18;;;;;;;21.40;19.50;;;13.60;99.90;;;;;;5006121;28;20448;-90
2023/09/27 06:17:47;;;;;;;23.47;21.27;;;13.70;99.90;;;;;;5005392;28;20460;-91
2023/09/27 06:20:21;;;;;;;21.80;20.10;;;13.70;99.90;;;;;;5006264;28;20487;-92
2023/09/27 06:22:53;;;;;;;22.83;20.80;;;13.70;99.90;;;;;;5004742;28;20548;-91
2023/09/27 06:25:23;;;;;;;22.87;20.83;;;13.80;99.90;;;;;;5006024;28;20456;-91
2023/09/27 06:27:52;;;;;;;22.67;20.70;;;13.80;99.90;;;;;;5004763;28;20492;-91
2023/09/27 06:30:21;;;;;;;22.43;20.30;;;13.90;99.90;;;;;;5006975;28;21008;-92
2023/09/27 06:32:49;;;;;;;22.83;20.80;;;13.90;99.90;;;;;;5007413;28;20532;-92
2023/09/27 06:35:17;;;;;;;24.47;22.27;;;13.90;99.90;;;;;;5005324;28;20449;-92
2023/09/27 06:37:48;;;;;;;21.43;19.47;;;13.90;99.90;;;;;;5003206;28;20905;-91
2023/09/27 06:40:22;;;;;;;25.33;23.13;;;14.00;99.90;;;;;;5004093;28;20953;-91
2023/09/27 06:42:50;;;;;;;25.77;23.40;;;13.90;99.90;;;;;;5006183;28;20479;-92
2023/09/27 06:45:20;;;;;;;25.53;23.23;;;14.00;99.90;;;;;;5019478;28;20437;-92
2023/09/27 06:47:48;;;;;;;28.07;25.47;;;14.00;99.90;;;;;;5019357;28;20432;-91
2023/09/27 06:50:19;;;;;;;30.03;27.33;;;14.00;99.90;;;;;;5019273;28;20463;-91
2023/09/27 06:52:47;;;;;;;28.50;26.00;;;14.00;99.90;;;;;;5019356;28;20453;-92
2023/09/27 06:55:18;;;;;;;27.43;24.83;;;14.20;99.90;;;;;;5019242;28;20472;-92
2023/09/27 06:57:52;;;;;;;29.67;26.87;;;14.10;99.90;;;;;;5019131;28;20460;-92
2023/09/27 07:00:24;;;;;;;27.27;24.93;;;14.20;99.90;;;;;;5019371;28;20456;-92
2023/09/27 07:02:53;;;;;;;30.60;27.80;;;14.20;99.90;;;;;;5018181;28;20480;-91
2023/09/27 07:05:22;;;;;;;29.70;27.00;;;14.30;99.90;;;;;;5000881;28;20465;-92
2023/09/27 07:07:53;;;;;;;32.43;29.53;;;14.30;99.90;;;;;;4997637;28;20453;-92
2023/09/27 07:10:22;;;;;;;31.63;28.83;;;14.30;99.90;;;;;;4999702;28;20516;-93
2023/09/27 07:12:53;;;;;;;30.60;27.80;;;14.50;99.90;;;;;;5004309;28;20472;-92
2023/09/27 07:15:22;;;;;;;31.63;28.67;;;14.50;99.90;;;;;;5004797;28;20467;-92
2023/09/27 07:17:50;;;;;;;30.83;27.77;;;14.50;99.90;;;;;;5003608;28;20484;-93
2023/09/27 07:20:23;;;;;;;29.23;26.60;;;14.50;99.90;;;;;;5007860;28;20453;-92
2023/09/27 07:22:53;;;;;;;31.20;28.40;;;14.60;99.90;;;;;;5004757;28;20476;-92
2023/09/27 07:25:21;;;;;;;31.20;28.20;;;14.60;99.90;;;;;;5005804;28;20464;-92
2023/09/27 07:27:52;;;;;;;31.00;28.30;;;14.70;99.90;;;;;;5007613;28;20491;-93
2023/09/27 07:30:23;;;;;;;32.37;29.30;;;14.70;99.90;;;;;;5006025;28;20471;-92
2023/09/27 07:32:55;;;;;;;31.63;28.83;;;14.80;99.90;;;;;;5005926;28;20476;-92
2023/09/27 07:35:27;;;;;;;30.50;27.60;;;14.90;99.90;;;;;;5006452;28;20427;-93
2023/09/27 07:37:56;;;;;;;31.70;28.77;;;14.90;99.90;;;;;;5025386;28;20543;-92
2023/09/27 07:40:24;;;;;;;30.67;27.73;;;15.00;99.90;;;;;;5008852;28;20504;-92
2023/09/27 07:42:54;;;;;;;32.40;29.30;;;15.10;99.90;;;;;;5007309;28;20472;-92
2023/09/27 07:45:25;;;;;;;30.47;27.40;;;15.10;99.90;;;;;;5009610;28;20440;-92
2023/09/27 07:47:55;;;;;;;31.33;28.50;;;15.20;99.90;;;;;;5010565;28;20463;-92
2023/09/27 07:50:26;;;;;;;31.07;28.23;;;15.30;99.90;;;;;;5009880;28;20476;-93
2023/09/27 07:52:55;;;;;;;31.33;28.57;;;15.30;99.90;;;;;;5011437;28;20471;-92
2023/09/27 07:55:24;;;;;;;30.37;27.60;;;15.40;99.90;;;;;;5015646;28;20448;-92
2023/09/27 07:57:55;;;;;;;29.77;27.00;;;15.50;99.90;;;;;;5010856;28;20449;-92
2023/09/27 08:00:28;;;;;;;32.43;29.10;;;15.50;99.90;;;;;;5012770;28;20463;-92
2023/09/27 08:02:57;;;;;;;30.50;27.50;;;15.70;99.90;;;;;;5012388;28;20492;-92
2023/09/27 08:05:26;;;;;;;29.87;27.00;;;15.70;99.90;;;;;;5012363;28;20456;-92
2023/09/27 08:07:55;;;;;;;27.70;25.20;;;15.90;99.90;;;;;;5013867;28;20460;-92
2023/09/27 08:10:24;;;;;;;29.33;26.50;;;15.90;99.90;;;;;;5014521;28;20447;-93
2023/09/27 08:12:55;;;;;;;29.53;26.63;;;16.00;99.90;;;;;;5013923;28;20488;-92
2023/09/27 08:15:23;;;;;;;29.03;26.10;;;16.20;99.90;;;;;;5015416;28;20472;-92
2023/09/27 08:17:52;;;;;;;27.90;25.10;;;16.30;99.90;;;;;;5014625;28;20460;-92
2023/09/27 08:20:20;;;;;;;27.43;25.00;;;16.40;99.90;;;;;;5015311;28;20425;-92
2023/09/27 08:22:49;;;;;;;28.07;25.30;;;16.60;99.90;;;;;;5014024;28;20507;-92
2023/09/27 08:25:17;;;;;;;26.10;23.40;;;16.70;99.90;;;;;;5016750;28;20523;-92
2023/09/27 08:27:50;;;;;;;25.30;22.90;;;16.80;99.90;;;;;;5016322;28;20427;-93
2023/09/27 08:30:21;;;;;;;25.70;23.20;;;16.90;99.90;;;;;;5017114;28;20422;-93
2023/09/27 08:32:51;;;;;;;26.00;23.43;;;17.10;99.90;;;;;;5016462;28;20431;-92
2023/09/27 08:35:20;;;;;;;25.17;22.97;;;17.20;99.90;;;;;;5018579;28;20435;-92
2023/09/27 08:37:48;;;;;;;25.83;23.33;;;17.20;99.90;;;;;;5020612;28;20431;-92
2023/09/27 08:40:17;;;;;;;25.43;23.13;;;17.40;99.90;;;;;;5020835;28;20500;-93
2023/09/27 08:42:50;;;;;;;23.87;21.53;;;17.40;99.90;;;;;;5020721;28;20465;-92
2023/09/27 08:45:23;;;;;;;22.33;20.10;;;17.60;99.90;;;;;;5019280;28;20415;-93
2023/09/27 08:47:52;;;;;;;24.73;22.53;;;17.70;99.90;;;;;;5020029;28;20487;-92
2023/09/27 08:50:21;;;;;;;22.73;20.73;;;17.80;99.90;;;;;;5020465;28;20457;-92
2023/09/27 08:52:52;;;;;;;24.03;21.53;;;17.90;99.90;;;;;;5020576;28;20464;-93
2023/09/27 08:55:21;;;;;;;23.40;21.20;;;18.00;99.90;;;;;;5020772;28;20526;-93
2023/09/27 08:57:51;;;;;;;22.37;20.40;;;18.20;99.90;;;;;;5020836;28;20402;-93
2023/09/27 09:00:23;;;;;;;21.77;19.67;;;18.20;99.90;;;;;;5021024;28;20415;-92
2023/09/27 09:02:57;;;;;;;23.37;21.37;;;18.30;99.90;;;;;;5020575;28;20448;-92
2023/09/27 09:05:29;;;;;;;21.20;19.07;;;18.40;99.90;;;;;;5020876;28;20428;-92
2023/09/27 09:08:00;;;;;;;22.60;20.30;;;18.50;99.90;;;;;;5021090;28;20439;-93
2023/09/27 09:10:29;;;;;;;22.70;20.50;;;18.60;99.90;;;;;;5021347;28;20492;-92
2023/09/27 09:12:59;;;;;;;21.77;19.77;;;18.70;99.90;;;;;;5021148;28;20457;-94
2023/09/27 09:15:35;;;;;;;19.30;17.60;;;18.80;99.90;;;;;;5021270;28;20504;-93
2023/09/27 09:18:08;;;;;;;18.13;16.43;;;18.90;99.90;;;;;;5021177;28;20420;-93
2023/09/27 09:20:50;;;;;;;21.47;19.57;;;18.90;99.90;;;;;;5021242;28;20449;-94
2023/09/27 09:23:30;;;;;;;19.70;18.00;;;19.00;99.90;;;;;;5020848;28;20452;-93
2023/09/27 09:25:59;;;;;;;17.47;15.97;;;19.00;99.90;;;;;;5020959;28;20627;-93
2023/09/27 09:28:27;;;;;;;18.00;16.40;;;19.10;99.90;;;;;;5020819;28;20433;-93
2023/09/27 09:30:57;;;;;;;18.13;16.53;;;19.20;99.90;;;;;;5020746;28;20479;-93
2023/09/27 09:33:28;;;;;;;18.70;17.00;;;19.20;99.90;;;;;;5020852;28;20471;-93
2023/09/27 09:35:57;;;;;;;18.90;17.30;;;19.30;99.90;;;;;;5020881;28;20429;-93
2023/09/27 09:38:29;;;;;;;18.83;16.97;;;19.30;99.90;;;;;;5020732;28;20448;-93
2023/09/27 09:40:59;;;;;;;18.83;17.00;;;19.40;99.90;;;;;;5020700;28;20445;-93
2023/09/27 09:43:35;;;;;;;17.47;15.80;;;19.40;99.90;;;;;;5020582;28;20449;-93
2023/09/27 09:46:08;;;;;;;16.50;15.00;;;19.50;99.90;;;;;;5020188;28;20500;-90
2023/09/27 09:48:38;;;;;;;16.50;15.00;;;19.50;99.90;;;;;;5020617;28;20425;-93
2023/09/27 09:51:08;;;;;;;16.23;14.70;;;19.60;99.90;;;;;;5020352;28;20464;-93
2023/09/27 09:53:40;;;;;;;15.77;14.27;;;19.60;99.90;;;;;;5020323;28;20480;-92
2023/09/27 09:56:10;;;;;;;14.47;13.17;;;19.70;99.90;;;;;;5020519;28;20452;-94
2023/09/27 09:58:47;;;;;;;14.57;13.27;;;19.80;99.90;;;;;;5020622;28;20513;-93
2023/09/27 10:01:21;;;;;;;15.07;13.83;;;19.90;99.90;;;;;;5020368;28;20451;-94
2023/09/27 10:03:53;;;;;;;15.50;14.10;;;20.00;99.90;;;;;;5020090;28;20452;-93
2023/09/27 10:06:23;;;;;;;14.50;13.20;;;20.00;99.90;;;;;;5020357;28;20444;-94
2023/09/27 10:08:54;;;;;;;14.50;13.10;;;20.10;99.90;;;;;;5020157;28;20431;-93
2023/09/27 10:11:24;;;;;;;14.47;13.10;;;20.20;99.90;;;;;;5019976;28;20459;-94
2023/09/27 10:13:54;;;;;;;14.53;13.23;;;20.30;99.90;;;;;;5020051;28;20753;-94
2023/09/27 10:16:25;;;;;;;14.47;13.17;;;20.30;99.90;;;;;;5020056;28;20422;-93
2023/09/27 10:18:55;;;;;;;13.30;12.03;;;20.40;99.90;;;;;;5019959;28;20508;-93
2023/09/27 10:21:23;;;;;;;13.33;11.10;;;20.50;99.90;;;;;;5019867;28;20449;-93
2023/09/27 10:24:00;;;;;;;11.53;10.50;;;20.50;99.90;;;;;;5019505;28;20480;-93
2023/09/27 10:26:38;;;;;;;10.03;9.20;;;20.50;99.90;;;;;;5019805;28;20429;-93
2023/09/27 10:29:12;;;;;;;10.83;9.73;;;20.60;99.90;;;;;;5019709;28;20455;-93
2023/09/27 10:32:21;;;;;;;9.43;8.63;;;20.60;99.90;;;;;;5019656;28;20513;-94
2023/09/27 10:34:51;;;;;;;11.83;10.80;;;20.70;99.90;;;;;;5036158;28;20420;-93
2023/09/27 10:37:58;;;;;;;12.17;10.87;;;20.80;99.90;;;;;;5019616;28;20452;-94
2023/09/27 10:40:27;;;;;;;12.47;11.20;;;20.90;99.90;;;;;;5019591;28;20464;-95
2023/09/27 10:42:56;;;;;;;10.20;9.23;;;20.90;99.90;;;;;;5019358;28;20453;-93
2023/09/27 10:45:25;;;;;;;11.80;10.40;;;21.00;99.90;;;;;;5019435;28;20464;-92
2023/09/27 10:47:54;;;;;;;10.87;9.80;;;21.00;99.90;;;;;;5019269;28;20424;-93
2023/09/27 10:50:31;;;;;;;11.27;10.17;;;21.10;99.90;;;;;;5019336;28;20448;-94
2023/09/27 10:53:00;;;;;;;9.90;9.03;;;21.10;99.90;;;;;;5019312;28;20453;-93
2023/09/27 10:55:41;;;;;;;14.70;10.13;;;21.20;99.90;;;;;;5014330;28;20429;-91
2023/09/27 10:58:15;;;;;;;11.83;10.73;;;21.30;99.90;;;;;;5018324;28;20427;-93
2023/09/27 11:00:56;;;;;;;10.13;9.30;;;21.30;99.90;;;;;;5019176;28;20460;-92
2023/09/27 11:03:25;;;;;;;11.13;10.03;;;21.40;99.90;;;;;;5019186;28;20457;-93
2023/09/27 11:06:08;;;;;;;12.00;10.80;;;21.40;99.90;;;;;;5019273;28;20440;-94
2023/09/27 11:08:37;;;;;;;8.60;7.87;;;21.40;99.90;;;;;;5018896;28;20456;-94
2023/09/27 11:11:08;;;;;;;9.97;9.07;;;21.40;99.90;;;;;;5019007;28;20452;-93
2023/09/27 11:13:42;;;;;;;10.43;9.43;;;21.40;99.90;;;;;;5019132;28;20532;-94
2023/09/27 11:16:18;;;;;;;12.23;11.00;;;21.50;99.90;;;;;;5011587;28;20448;-93
2023/09/27 11:18:49;;;;;;;12.60;11.30;;;21.50;99.90;;;;;;5032415;28;20429;-94
2023/09/27 11:21:20;;;;;;;9.80;8.90;;;21.60;99.90;;;;;;5018748;28;20436;-93
2023/09/27 11:23:52;;;;;;;9.50;8.60;;;21.60;99.90;;;;;;5016575;28;20467;-90
2023/09/27 11:26:22;;;;;;;9.40;8.40;;;21.60;99.90;;;;;;4995439;28;21063;-90
2023/09/27 11:28:58;;;;;;;8.10;7.30;;;21.60;99.90;;;;;;5015845;28;20459;-93
2023/09/27 11:31:28;;;;;;;7.60;6.90;;;21.70;99.90;;;;;;5018593;28;20476;-93
2023/09/27 11:34:12;;;;;;;7.33;6.63;;;21.70;99.90;;;;;;5018607;28;20468;-94
2023/09/27 11:36:43;;;;;;;7.87;7.13;;;21.70;99.90;;;;;;5035265;28;20428;-94
2023/09/27 11:39:27;;;;;;;7.77;7.07;;;21.80;99.90;;;;;;5009714;28;20536;-91
2023/09/27 11:47:55;;;;;;;8.77;8.07;;;22.00;99.90;;;;;;5013092;28;20456;-93
2023/09/27 11:50:47;;;;;;;7.17;6.57;;;22.00;99.90;;;;;;4999459;28;20452;-93
2023/09/27 11:53:51;;;;;;;11.30;7.43;;;22.10;99.90;;;;;;4998304;28;20476;-93
2023/09/27 11:56:38;;;;;;;8.00;7.20;;;22.10;99.90;;;;;;4998605;28;20872;-93
2023/09/27 12:02:18;;;;;;;7.10;6.30;;;22.10;99.90;;;;;;4998409;28;20449;-92
2023/09/27 12:08:02;;;;;;;8.50;7.70;;;22.10;99.90;;;;;;4999195;28;20453;-93
2023/09/27 12:14:07;;;;;;;8.60;7.80;;;22.20;99.90;;;;;;5016854;28;20457;-92
2023/09/27 12:22:54;;;;;;;8.33;7.50;;;22.30;99.90;;;;;;5091110;28;20530;-74
2023/09/27 12:25:22;;;;;;;7.97;7.27;;;22.30;99.90;;;;;;5089773;28;20492;-74
2023/09/27 12:27:50;;;;;;;8.00;6.80;;;22.30;99.90;;;;;;5091286;28;20433;-74
2023/09/27 12:30:19;;;;;;;7.40;6.80;;;22.30;99.90;;;;;;5090876;28;20433;-74
2023/09/27 12:32:47;;;;;;;7.40;6.70;;;22.30;99.90;;;;;;5090846;28;20486;-74
2023/09/27 12:35:15;;;;;;;8.10;7.50;;;22.30;99.90;;;;;;5089445;28;20472;-74
2023/09/27 12:37:43;;;;;;;8.20;7.40;;;22.40;99.90;;;;;;5090802;28;20445;-75
2023/09/27 12:40:14;;;;;;;7.50;6.70;;;22.50;99.90;;;;;;5090873;28;20929;-75
2023/09/27 12:42:42;;;;;;;9.33;8.63;;;22.40;99.90;;;;;;5090656;28;20468;-74
2023/09/27 12:45:11;;;;;;;8.17;7.37;;;22.50;99.90;;;;;;5091004;28;20463;-74
2023/09/27 12:47:41;;;;;;;8.30;7.50;;;22.50;99.90;;;;;;5090862;28;20440;-75
2023/09/27 12:50:10;;;;;;;8.93;8.10;;;22.50;99.90;;;;;;5091203;28;20425;-75
2023/09/27 12:52:38;;;;;;;8.80;7.97;;;22.50;99.90;;;;;;5090681;28;20610;-75
2023/09/27 12:55:07;;;;;;;7.37;6.63;;;22.60;99.90;;;;;;5089029;28;20460;-75
2023/09/27 12:57:36;;;;;;;7.40;6.70;;;22.60;99.90;;;;;;5090365;28;20440;-75
2023/09/27 13:00:08;;;;;;;7.13;6.50;;;22.70;99.90;;;;;;5090282;28;20428;-75
2023/09/27 13:02:37;;;;;;;6.50;6.00;;;22.70;99.90;;;;;;5090500;28;20551;-75
2023/09/27 13:05:06;;;;;;;7.27;6.53;;;22.70;99.90;;;;;;5090384;28;20821;-75
2023/09/27 13:07:34;;;;;;;10.80;8.97;;;22.70;99.90;;;;;;5090138;28;20502;-75
2023/09/27 13:10:04;;;;;;;8.07;7.37;;;22.70;99.90;;;;;;5090323;28;20494;-75
2023/09/27 13:12:32;;;;;;;8.27;7.47;;;22.70;99.90;;;;;;5090409;28;20417;-75